Time;durP1;ratioP1;P1;durP2;ratioP2;P2;SDS_P1;SDS_P2;PMS_P1;PMS_P2;Temp;Humidity;BMP_temperature;BMP_pressure;BME280_temperature;BME280_humidity;BME280_pressure;Samples;Min_cycle;Max_cycle;Signal;HPM_P1;HPM_P2
2024/01/13 00:01:47;;;;;;;7.93;5.45;;;-4.00;99.90;;;;;;5050851;28;20232;-76
2024/01/13 00:04:17;;;;;;;15.38;5.18;;;-3.90;99.90;;;;;;5050830;28;20742;-76
2024/01/13 00:06:44;;;;;;;11.10;7.63;;;-3.90;99.90;;;;;;5051804;28;20217;-75
2024/01/13 00:09:11;;;;;;;7.05;5.18;;;-3.90;99.90;;;;;;5050487;28;20216;-76
2024/01/13 00:11:38;;;;;;;6.97;5.53;;;-3.80;99.90;;;;;;5051792;28;20714;-76
2024/01/13 00:14:05;;;;;;;7.18;4.85;;;-3.70;99.90;;;;;;5050351;28;20212;-76
2024/01/13 00:16:32;;;;;;;12.27;10.13;;;-3.70;99.90;;;;;;5052984;28;20201;-76
2024/01/13 00:18:58;;;;;;;17.08;5.82;;;-3.70;99.90;;;;;;5052667;28;20216;-76
2024/01/13 00:21:27;;;;;;;8.07;3.75;;;-3.70;99.90;;;;;;5053093;28;20221;-76
2024/01/13 00:23:53;;;;;;;12.13;7.03;;;-3.70;99.90;;;;;;5052385;28;20584;-75
2024/01/13 00:26:20;;;;;;;14.20;7.95;;;-3.60;99.90;;;;;;5053026;28;20789;-75
2024/01/13 00:28:47;;;;;;;12.85;4.22;;;-3.60;99.90;;;;;;5053009;28;20209;-76
2024/01/13 00:31:14;;;;;;;14.75;7.38;;;-3.60;99.90;;;;;;5052844;28;20693;-76
2024/01/13 00:33:43;;;;;;;10.55;6.78;;;-3.70;99.90;;;;;;5052967;28;20201;-76
2024/01/13 00:36:10;;;;;;;12.77;7.72;;;-3.90;99.90;;;;;;5052907;28;20209;-76
2024/01/13 00:38:38;;;;;;;12.80;5.97;;;-3.90;99.90;;;;;;5052964;28;20212;-76
2024/01/13 00:41:05;;;;;;;14.82;8.18;;;-3.90;99.90;;;;;;5052978;28;20236;-76
2024/01/13 00:43:32;;;;;;;29.00;9.73;;;-3.90;99.90;;;;;;5052440;28;20228;-76
2024/01/13 00:45:59;;;;;;;10.68;7.10;;;-3.80;99.90;;;;;;5052762;28;20353;-76
2024/01/13 00:48:26;;;;;;;12.45;7.50;;;-3.80;99.90;;;;;;5053269;28;20205;-76
2024/01/13 00:50:52;;;;;;;22.35;9.52;;;-3.70;99.90;;;;;;5052480;28;20219;-76
2024/01/13 00:53:19;;;;;;;10.70;8.55;;;-3.70;99.90;;;;;;5052780;28;20220;-76
2024/01/13 00:55:47;;;;;;;12.27;9.07;;;-3.70;99.90;;;;;;5052680;28;20212;-76
2024/01/13 00:58:16;;;;;;;15.10;6.50;;;-3.70;99.90;;;;;;5052372;28;20212;-75
2024/01/13 01:00:42;;;;;;;8.88;6.10;;;-3.80;99.90;;;;;;5052458;28;20212;-76
2024/01/13 01:03:09;;;;;;;13.35;6.15;;;-3.80;99.90;;;;;;5051829;28;20225;-76
2024/01/13 01:05:36;;;;;;;17.40;7.35;;;-3.80;99.90;;;;;;5052380;28;20658;-76
2024/01/13 01:08:03;;;;;;;15.75;6.00;;;-3.80;99.90;;;;;;5052259;28;20213;-76
2024/01/13 01:10:29;;;;;;;12.98;9.55;;;-3.90;99.90;;;;;;5052344;28;20678;-75
2024/01/13 01:12:57;;;;;;;14.38;6.88;;;-3.90;99.90;;;;;;5051792;28;20686;-76
2024/01/13 01:15:24;;;;;;;14.00;9.05;;;-3.80;99.90;;;;;;5052640;28;20681;-76
2024/01/13 01:17:51;;;;;;;9.48;7.55;;;-3.80;99.90;;;;;;5052153;28;20304;-76
2024/01/13 01:20:19;;;;;;;10.63;7.47;;;-3.80;99.90;;;;;;5051264;28;20209;-76
2024/01/13 01:22:46;;;;;;;10.18;6.30;;;-3.90;99.90;;;;;;5051642;28;20229;-76
2024/01/13 01:25:13;;;;;;;11.20;8.60;;;-3.90;99.90;;;;;;5051924;28;20209;-76
2024/01/13 01:27:40;;;;;;;11.68;6.45;;;-3.80;99.90;;;;;;5051997;28;20221;-76
2024/01/13 01:30:09;;;;;;;7.55;4.97;;;-3.80;99.90;;;;;;5051838;28;20228;-76
2024/01/13 01:32:35;;;;;;;10.30;5.32;;;-3.80;99.90;;;;;;5051703;28;20221;-76
2024/01/13 01:35:02;;;;;;;19.33;7.45;;;-3.80;99.90;;;;;;5051640;28;20590;-76
2024/01/13 01:37:29;;;;;;;9.07;6.60;;;-3.80;99.90;;;;;;5052182;28;20201;-76
2024/01/13 01:39:56;;;;;;;13.48;6.63;;;-3.80;99.90;;;;;;5048365;28;20582;-76
2024/01/13 01:42:22;;;;;;;8.68;4.40;;;-3.70;99.90;;;;;;5051323;28;20240;-76
2024/01/13 01:44:49;;;;;;;14.63;8.48;;;-3.70;99.90;;;;;;5051854;28;20209;-76
2024/01/13 01:47:19;;;;;;;19.85;9.07;;;-3.70;99.90;;;;;;5051450;28;20213;-76
2024/01/13 01:49:46;;;;;;;6.47;5.03;;;-3.80;99.90;;;;;;5051487;28;20306;-76
2024/01/13 01:52:14;;;;;;;9.68;5.47;;;-4.10;99.90;;;;;;5051152;28;20229;-76
2024/01/13 01:54:42;;;;;;;13.20;6.63;;;-4.10;99.90;;;;;;5051739;28;20209;-76
2024/01/13 01:57:11;;;;;;;18.42;7.22;;;-4.10;99.90;;;;;;5051478;28;20208;-76
2024/01/13 01:59:38;;;;;;;8.13;4.60;;;-4.00;99.90;;;;;;5051466;28;20209;-76
2024/01/13 02:02:08;;;;;;;8.88;8.00;;;-4.00;99.90;;;;;;5051230;28;20609;-76
2024/01/13 02:04:36;;;;;;;16.27;7.43;;;-3.90;99.90;;;;;;5051286;28;20209;-76
2024/01/13 02:07:03;;;;;;;12.40;4.15;;;-3.90;99.90;;;;;;5051340;28;20205;-76
2024/01/13 02:09:30;;;;;;;8.63;5.45;;;-3.90;99.90;;;;;;5051171;28;20674;-76
2024/01/13 02:11:57;;;;;;;8.90;6.25;;;-3.80;99.90;;;;;;5051287;28;20714;-76
2024/01/13 02:14:24;;;;;;;8.50;4.35;;;-3.80;99.90;;;;;;5050930;28;20196;-75
2024/01/13 02:16:51;;;;;;;10.43;5.93;;;-3.80;99.90;;;;;;5051405;28;20207;-76
2024/01/13 02:19:18;;;;;;;21.65;7.40;;;-3.80;99.90;;;;;;5051030;28;20205;-76
2024/01/13 02:21:46;;;;;;;12.05;6.85;;;-3.80;99.90;;;;;;5051249;28;20237;-76
2024/01/13 02:24:13;;;;;;;13.05;6.75;;;-3.80;99.90;;;;;;5050500;28;20316;-76
2024/01/13 02:26:40;;;;;;;15.98;6.40;;;-3.80;99.90;;;;;;5051307;28;20220;-76
2024/01/13 02:29:06;;;;;;;8.15;5.95;;;-3.90;99.90;;;;;;5050693;28;20404;-76
2024/01/13 02:31:33;;;;;;;14.88;7.47;;;-4.00;99.90;;;;;;5051164;28;20228;-76
2024/01/13 02:34:00;;;;;;;9.90;4.68;;;-4.00;99.90;;;;;;5050066;28;20205;-76
2024/01/13 02:36:27;;;;;;;19.80;7.15;;;-4.00;99.90;;;;;;5051075;28;20212;-76
2024/01/13 02:38:55;;;;;;;7.72;4.88;;;-4.10;99.90;;;;;;5050698;28;20212;-75
2024/01/13 02:41:21;;;;;;;11.65;4.30;;;-4.20;99.90;;;;;;5050450;28;20236;-76
2024/01/13 02:43:48;;;;;;;14.75;8.30;;;-4.30;99.90;;;;;;5050455;28;20232;-76
2024/01/13 02:46:15;;;;;;;10.52;5.30;;;-4.40;99.90;;;;;;5050676;28;20201;-76
2024/01/13 02:48:46;;;;;;;12.00;9.20;;;-4.40;99.90;;;;;;5050795;28;20212;-76
2024/01/13 02:51:14;;;;;;;9.00;6.57;;;-4.30;99.90;;;;;;5050740;28;20575;-76
2024/01/13 02:53:41;;;;;;;9.15;5.28;;;-4.20;99.90;;;;;;5050505;28;20814;-76
2024/01/13 02:56:09;;;;;;;9.30;5.70;;;-4.20;99.90;;;;;;5048691;28;20217;-75
2024/01/13 02:58:36;;;;;;;12.90;8.05;;;-4.10;99.90;;;;;;5049039;28;20209;-76
2024/01/13 03:01:06;;;;;;;5.60;5.03;;;-4.00;99.90;;;;;;5050595;28;20205;-75
2024/01/13 03:03:33;;;;;;;8.05;6.70;;;-4.00;99.90;;;;;;5047125;28;20312;-76
2024/01/13 03:06:00;;;;;;;6.03;4.40;;;-3.90;99.90;;;;;;5050646;28;20209;-76
2024/01/13 03:08:27;;;;;;;10.68;7.32;;;-3.90;99.90;;;;;;5050263;28;20209;-76
2024/01/13 03:10:53;;;;;;;13.48;6.40;;;-3.90;99.90;;;;;;5050634;28;20207;-76
2024/01/13 03:13:22;;;;;;;12.07;4.40;;;-4.00;99.90;;;;;;5050100;28;20232;-77
2024/01/13 03:15:47;;;;;;;8.60;5.53;;;-4.10;99.90;;;;;;5050752;28;20205;-77
2024/01/13 03:18:14;;;;;;;16.20;7.63;;;-4.10;99.90;;;;;;5049974;28;20682;-76
2024/01/13 03:20:41;;;;;;;12.93;7.15;;;-4.20;99.90;;;;;;5050333;28;20697;-76
2024/01/13 03:23:07;;;;;;;11.35;6.95;;;-4.20;99.90;;;;;;5049598;28;20716;-76
2024/01/13 03:25:34;;;;;;;12.25;4.95;;;-4.10;99.90;;;;;;5050279;28;20205;-76
2024/01/13 03:28:01;;;;;;;10.25;5.20;;;-4.10;99.90;;;;;;5050518;28;20205;-76
2024/01/13 03:30:29;;;;;;;14.25;6.00;;;-4.00;99.90;;;;;;5049550;28;20693;-76
2024/01/13 03:32:56;;;;;;;11.65;8.13;;;-3.90;99.90;;;;;;5045226;28;20225;-77
2024/01/13 03:35:22;;;;;;;7.22;4.35;;;-3.90;99.90;;;;;;5050069;28;20216;-76
2024/01/13 03:37:49;;;;;;;9.05;6.18;;;-3.90;99.90;;;;;;5050406;28;20236;-77
2024/01/13 03:40:16;;;;;;;11.95;7.28;;;-3.80;99.90;;;;;;5049867;28;20542;-77
2024/01/13 03:42:45;;;;;;;21.88;7.57;;;-3.80;99.90;;;;;;5049922;28;20225;-76
2024/01/13 03:45:12;;;;;;;13.43;6.28;;;-3.80;99.90;;;;;;5053348;28;20216;-76
2024/01/13 03:47:40;;;;;;;16.73;9.32;;;-3.80;99.90;;;;;;5053884;28;20202;-76
2024/01/13 03:50:08;;;;;;;12.43;7.43;;;-3.80;99.90;;;;;;5054125;28;20209;-76
2024/01/13 03:52:35;;;;;;;10.05;4.75;;;-3.70;99.90;;;;;;5053486;28;20523;-76
2024/01/13 03:55:02;;;;;;;9.38;5.10;;;-3.70;99.90;;;;;;5054012;28;20213;-76
2024/01/13 03:57:28;;;;;;;14.10;6.28;;;-3.80;99.90;;;;;;5053680;28;20201;-76
2024/01/13 03:59:55;;;;;;;8.13;5.00;;;-3.80;99.90;;;;;;5053787;28;20212;-76
2024/01/13 04:02:21;;;;;;;19.50;7.90;;;-3.80;99.90;;;;;;5060251;28;20216;-76
2024/01/13 04:04:49;;;;;;;13.02;6.05;;;-3.80;99.90;;;;;;5054617;28;20291;-76
2024/01/13 04:07:17;;;;;;;13.73;7.35;;;-3.80;99.90;;;;;;5053320;28;20201;-76
2024/01/13 04:09:44;;;;;;;9.35;8.27;;;-3.80;99.90;;;;;;5053490;28;20674;-76
2024/01/13 04:12:11;;;;;;;16.27;6.88;;;-3.90;99.90;;;;;;5053449;28;20225;-76
2024/01/13 04:14:37;;;;;;;10.20;6.40;;;-3.90;99.90;;;;;;5053349;28;20198;-76
2024/01/13 04:17:05;;;;;;;17.85;7.18;;;-4.00;99.90;;;;;;5053515;28;20681;-76
2024/01/13 04:19:31;;;;;;;22.63;5.80;;;-4.20;99.90;;;;;;5053356;28;20736;-76
2024/01/13 04:22:00;;;;;;;8.10;5.28;;;-4.20;99.90;;;;;;5053487;28;20225;-76
2024/01/13 04:24:26;;;;;;;11.88;6.85;;;-4.30;99.90;;;;;;5052616;28;20594;-76
2024/01/13 04:26:53;;;;;;;7.10;4.75;;;-4.30;99.90;;;;;;5053320;28;20236;-76
2024/01/13 04:29:20;;;;;;;9.55;4.95;;;-4.30;99.90;;;;;;5052726;28;20568;-76
2024/01/13 04:31:46;;;;;;;12.27;5.35;;;-4.30;99.90;;;;;;5053056;28;20718;-76
2024/01/13 04:34:13;;;;;;;16.92;7.93;;;-4.40;99.90;;;;;;5052709;28;20197;-76
2024/01/13 04:36:40;;;;;;;6.75;3.58;;;-4.30;99.90;;;;;;5053268;28;20209;-76
2024/01/13 04:39:08;;;;;;;8.32;6.07;;;-4.20;99.90;;;;;;5053064;28;20205;-76
2024/01/13 04:41:35;;;;;;;6.07;5.05;;;-4.20;99.90;;;;;;5052636;28;20286;-76
2024/01/13 04:44:03;;;;;;;15.40;7.20;;;-4.10;99.90;;;;;;5052859;28;20228;-76
2024/01/13 04:46:30;;;;;;;12.32;6.45;;;-4.00;99.90;;;;;;5052746;28;20651;-76
2024/01/13 04:48:56;;;;;;;10.20;7.85;;;-4.00;99.90;;;;;;5047322;28;20205;-76
2024/01/13 04:51:23;;;;;;;8.15;6.40;;;-4.00;99.90;;;;;;5052500;28;20223;-76
2024/01/13 04:53:50;;;;;;;12.50;6.20;;;-4.00;99.90;;;;;;5052319;28;20201;-76
2024/01/13 04:56:18;;;;;;;7.75;5.30;;;-4.00;99.90;;;;;;5051730;28;20205;-76
2024/01/13 04:58:45;;;;;;;13.23;7.50;;;-4.10;99.90;;;;;;5052423;28;20658;-76
2024/01/13 05:01:11;;;;;;;12.27;7.70;;;-4.10;99.90;;;;;;5052520;28;20205;-76
2024/01/13 05:03:38;;;;;;;9.00;5.10;;;-4.00;99.90;;;;;;5051946;28;20604;-77
2024/01/13 05:06:05;;;;;;;12.85;6.38;;;-4.00;99.90;;;;;;5052550;28;20626;-76
2024/01/13 05:08:32;;;;;;;18.77;7.25;;;-4.00;99.90;;;;;;5052139;28;20682;-76
2024/01/13 05:10:59;;;;;;;15.05;5.90;;;-3.90;99.90;;;;;;5052413;28;20201;-76
2024/01/13 05:13:27;;;;;;;13.02;6.53;;;-3.90;99.90;;;;;;5051868;28;20201;-76
2024/01/13 05:15:53;;;;;;;12.27;5.85;;;-3.90;99.90;;;;;;5050440;28;20197;-76
2024/01/13 05:18:20;;;;;;;12.80;8.52;;;-3.80;99.90;;;;;;5051999;28;20239;-76
2024/01/13 05:20:47;;;;;;;15.55;7.13;;;-3.90;99.90;;;;;;5052138;28;20201;-76
2024/01/13 05:23:14;;;;;;;24.75;7.30;;;-4.00;99.90;;;;;;5051864;28;20280;-76
2024/01/13 05:25:41;;;;;;;5.80;5.10;;;-4.00;99.90;;;;;;5052360;28;20212;-76
2024/01/13 05:28:08;;;;;;;7.50;6.38;;;-4.10;99.90;;;;;;5051846;28;20197;-76
2024/01/13 05:30:36;;;;;;;4.38;3.65;;;-4.10;99.90;;;;;;5051603;28;20201;-76
2024/01/13 05:33:04;;;;;;;6.88;6.25;;;-4.10;99.90;;;;;;5051681;28;20228;-76
2024/01/13 05:35:30;;;;;;;8.57;6.78;;;-4.10;99.90;;;;;;5051732;28;20472;-76
2024/01/13 05:37:57;;;;;;;11.23;5.32;;;-4.00;99.90;;;;;;5052017;28;20201;-76
2024/01/13 05:40:24;;;;;;;14.23;8.02;;;-3.90;99.90;;;;;;5051442;28;20201;-76
2024/01/13 05:42:51;;;;;;;17.35;5.97;;;-3.90;99.90;;;;;;5051607;28;20248;-76
2024/01/13 05:45:18;;;;;;;7.53;5.13;;;-3.90;99.90;;;;;;5052065;28;20221;-76
2024/01/13 05:47:46;;;;;;;11.98;6.68;;;-4.00;99.90;;;;;;5051463;28;20201;-76
2024/01/13 05:50:12;;;;;;;10.70;8.15;;;-4.00;99.90;;;;;;5052002;28;20357;-76
2024/01/13 05:52:39;;;;;;;10.40;6.43;;;-4.00;99.90;;;;;;5051072;28;20232;-76
2024/01/13 05:55:07;;;;;;;17.45;6.70;;;-3.90;99.90;;;;;;5051529;28;20205;-76
2024/01/13 05:57:33;;;;;;;14.50;8.10;;;-3.90;99.90;;;;;;5051233;28;20222;-76
2024/01/13 06:00:00;;;;;;;12.68;7.50;;;-3.90;99.90;;;;;;5051455;28;20227;-76
2024/01/13 06:02:27;;;;;;;6.53;5.82;;;-3.80;99.90;;;;;;5050970;28;20225;-76
2024/01/13 06:04:55;;;;;;;9.05;5.25;;;-3.80;99.90;;;;;;5051322;28;20220;-76
2024/01/13 06:07:22;;;;;;;12.20;5.35;;;-3.80;99.90;;;;;;5051065;28;20201;-76
2024/01/13 06:09:49;;;;;;;6.63;4.90;;;-3.80;99.90;;;;;;5051349;28;20587;-75
2024/01/13 06:12:15;;;;;;;10.02;6.32;;;-3.70;99.90;;;;;;5051510;28;20221;-75
2024/01/13 06:14:42;;;;;;;9.02;7.50;;;-3.70;99.90;;;;;;5051377;28;20205;-75
2024/01/13 06:17:09;;;;;;;15.52;7.45;;;-3.70;99.90;;;;;;5051083;28;20203;-76
2024/01/13 06:19:36;;;;;;;8.63;6.32;;;-3.70;99.90;;;;;;5050956;28;20204;-76
2024/01/13 06:22:04;;;;;;;9.68;5.45;;;-3.70;99.90;;;;;;5049829;28;20787;-76
2024/01/13 06:24:31;;;;;;;24.90;8.73;;;-3.70;99.90;;;;;;5048786;28;20232;-76
2024/01/13 06:26:58;;;;;;;20.70;7.80;;;-3.70;99.90;;;;;;5051037;28;20223;-76
2024/01/13 06:29:24;;;;;;;11.38;8.57;;;-3.80;99.90;;;;;;5050793;28;20582;-76
2024/01/13 06:31:51;;;;;;;19.55;7.07;;;-3.80;99.90;;;;;;5050989;28;20229;-76
2024/01/13 06:34:18;;;;;;;18.25;10.27;;;-3.80;99.90;;;;;;5050816;28;20579;-76
2024/01/13 06:36:45;;;;;;;16.23;7.55;;;-3.80;99.90;;;;;;5050853;28;20197;-76
2024/01/13 06:39:13;;;;;;;16.88;6.88;;;-3.80;99.90;;;;;;5050852;28;20205;-76
2024/01/13 06:41:39;;;;;;;16.48;8.57;;;-3.80;99.90;;;;;;5050321;28;20237;-76
2024/01/13 06:44:07;;;;;;;17.30;8.15;;;-3.80;99.90;;;;;;5050731;28;20823;-77
2024/01/13 06:46:33;;;;;;;8.30;4.68;;;-3.70;99.90;;;;;;5050632;28;20216;-77
2024/01/13 06:49:00;;;;;;;9.35;5.75;;;-3.70;99.90;;;;;;5050805;28;20201;-77
2024/01/13 06:51:27;;;;;;;21.65;8.90;;;-3.70;99.90;;;;;;5050614;28;20607;-77
2024/01/13 06:53:53;;;;;;;8.55;6.53;;;-3.70;99.90;;;;;;5050456;28;20215;-77
2024/01/13 06:56:21;;;;;;;10.18;7.28;;;-3.70;99.90;;;;;;5051308;28;20220;-77
2024/01/13 06:58:48;;;;;;;13.20;6.88;;;-3.60;99.90;;;;;;5050412;28;20201;-77
2024/01/13 07:01:15;;;;;;;9.18;5.43;;;-3.60;99.90;;;;;;5048489;28;20236;-77
2024/01/13 07:03:42;;;;;;;7.20;5.13;;;-3.60;99.90;;;;;;5047856;28;20214;-77
2024/01/13 07:06:09;;;;;;;5.18;4.63;;;-3.70;99.90;;;;;;5046734;28;20197;-77
2024/01/13 07:08:36;;;;;;;8.68;5.75;;;-3.70;99.90;;;;;;5050468;28;20204;-74
2024/01/13 07:11:11;;;;;;;10.35;5.68;;;-3.70;99.90;;;;;;5050681;28;20593;-75
2024/01/13 07:13:41;;;;;;;8.45;5.65;;;-3.70;99.90;;;;;;5049844;28;20236;-76
2024/01/13 07:16:08;;;;;;;9.85;5.50;;;-3.80;99.90;;;;;;5050651;28;20215;-76
2024/01/13 07:18:34;;;;;;;16.48;6.18;;;-3.70;99.90;;;;;;5050677;28;20258;-76
2024/01/13 07:21:01;;;;;;;20.25;6.78;;;-3.80;99.90;;;;;;5054173;28;20197;-76
2024/01/13 07:23:28;;;;;;;8.13;5.07;;;-3.90;99.90;;;;;;5053999;28;20201;-75
2024/01/13 07:25:55;;;;;;;12.57;7.40;;;-3.90;99.90;;;;;;5054524;28;20254;-76
2024/01/13 07:28:22;;;;;;;10.50;6.95;;;-3.90;99.90;;;;;;5054448;28;20238;-76
2024/01/13 07:30:50;;;;;;;6.40;5.15;;;-3.90;99.90;;;;;;5053908;28;20216;-75
2024/01/13 07:33:17;;;;;;;6.10;5.50;;;-3.80;99.90;;;;;;5054124;28;20224;-76
2024/01/13 07:35:44;;;;;;;11.15;6.78;;;-3.80;99.90;;;;;;5053900;28;20235;-75
2024/01/13 07:38:10;;;;;;;12.55;6.53;;;-3.70;99.90;;;;;;5054229;28;20753;-75
2024/01/13 07:40:38;;;;;;;8.70;6.93;;;-3.80;99.90;;;;;;5053870;28;20213;-74
2024/01/13 07:43:04;;;;;;;13.98;5.15;;;-3.90;99.90;;;;;;5053761;28;20286;-76
2024/01/13 07:45:31;;;;;;;11.65;4.82;;;-3.80;99.90;;;;;;5054008;28;20604;-76
2024/01/13 07:47:59;;;;;;;9.00;5.60;;;-3.90;99.90;;;;;;5054374;28;20216;-75
2024/01/13 07:50:26;;;;;;;9.32;4.70;;;-3.90;99.90;;;;;;5053852;28;20201;-76
2024/01/13 07:52:52;;;;;;;12.00;5.10;;;-4.00;99.90;;;;;;5055302;28;20249;-76
2024/01/13 07:55:19;;;;;;;4.03;3.40;;;-4.10;99.90;;;;;;5054247;28;20208;-76
2024/01/13 07:57:46;;;;;;;8.70;5.60;;;-4.10;99.90;;;;;;5053506;28;20205;-75
2024/01/13 08:00:13;;;;;;;14.85;6.10;;;-4.30;99.90;;;;;;5053885;28;20212;-74
2024/01/13 08:02:40;;;;;;;13.48;8.25;;;-4.30;99.90;;;;;;5052670;28;20240;-75
2024/01/13 08:05:08;;;;;;;6.72;5.72;;;-4.40;99.90;;;;;;5053736;28;20217;-75
2024/01/13 08:07:35;;;;;;;11.60;5.03;;;-4.40;99.90;;;;;;5053421;28;20212;-76
2024/01/13 08:10:03;;;;;;;12.80;9.30;;;-4.40;99.90;;;;;;5053420;28;20206;-76
2024/01/13 08:12:29;;;;;;;8.82;5.05;;;-4.30;99.90;;;;;;5052840;28;20227;-75
2024/01/13 08:14:56;;;;;;;4.10;3.70;;;-4.40;99.90;;;;;;5053131;28;20216;-75
2024/01/13 08:17:23;;;;;;;5.15;4.63;;;-4.40;99.90;;;;;;5053618;28;20212;-75
2024/01/13 08:19:49;;;;;;;14.38;6.93;;;-4.40;99.90;;;;;;5052917;28;20292;-76
2024/01/13 08:22:18;;;;;;;8.77;5.18;;;-4.40;99.90;;;;;;5053143;28;20217;-76
2024/01/13 08:24:44;;;;;;;19.48;6.30;;;-4.40;99.90;;;;;;5052892;28;20233;-75
2024/01/13 08:27:11;;;;;;;5.00;4.50;;;-4.30;99.90;;;;;;5053462;28;20205;-75
2024/01/13 08:29:38;;;;;;;6.90;4.72;;;-4.30;99.90;;;;;;5052445;28;20216;-74
2024/01/13 08:32:05;;;;;;;8.48;6.55;;;-4.30;99.90;;;;;;5052458;28;20223;-75
2024/01/13 08:34:33;;;;;;;11.75;6.05;;;-4.30;99.90;;;;;;5052762;28;20666;-75
2024/01/13 08:36:59;;;;;;;8.20;6.50;;;-4.30;99.90;;;;;;5052998;28;20211;-75
2024/01/13 08:39:28;;;;;;;8.30;5.60;;;-4.20;99.90;;;;;;5052959;28;20209;-74
2024/01/13 08:41:54;;;;;;;13.88;6.15;;;-4.20;99.90;;;;;;5052515;28;20225;-76
2024/01/13 08:44:21;;;;;;;10.48;6.00;;;-4.20;99.90;;;;;;5053026;28;20198;-76
2024/01/13 08:46:48;;;;;;;8.77;4.32;;;-4.10;99.90;;;;;;5053063;28;20209;-76
2024/01/13 08:49:15;;;;;;;6.85;4.70;;;-4.10;99.90;;;;;;5053312;28;20205;-77
2024/01/13 08:51:41;;;;;;;4.18;3.78;;;-4.00;99.90;;;;;;5052837;28;20216;-77
2024/01/13 08:54:08;;;;;;;8.40;3.78;;;-4.00;99.90;;;;;;5052916;28;20206;-76
2024/01/13 08:56:36;;;;;;;7.85;4.78;;;-3.80;99.90;;;;;;5053171;28;20296;-76
2024/01/13 08:59:04;;;;;;;6.20;3.25;;;-3.80;99.90;;;;;;5045678;28;20208;-76
2024/01/13 09:01:30;;;;;;;13.52;4.20;;;-3.80;99.90;;;;;;5052813;28;20240;-76
2024/01/13 09:03:57;;;;;;;10.60;5.68;;;-3.80;99.90;;;;;;5051801;28;20212;-76
2024/01/13 09:06:24;;;;;;;5.25;4.75;;;-3.70;99.90;;;;;;5052655;28;20308;-75
2024/01/13 09:08:50;;;;;;;5.53;3.80;;;-3.70;99.90;;;;;;5052174;28;21464;-76
2024/01/13 09:11:17;;;;;;;3.35;3.05;;;-3.60;99.90;;;;;;5052826;28;20224;-76
2024/01/13 09:13:45;;;;;;;11.57;5.07;;;-3.50;99.90;;;;;;5052070;28;20209;-76
2024/01/13 09:16:12;;;;;;;3.97;3.15;;;-3.40;99.90;;;;;;5052713;28;20201;-76
2024/01/13 09:18:39;;;;;;;9.48;4.70;;;-3.40;99.90;;;;;;5052475;28;20215;-76
2024/01/13 09:21:08;;;;;;;7.63;3.38;;;-3.30;99.90;;;;;;5045239;28;20581;-76
2024/01/13 09:23:35;;;;;;;6.97;4.25;;;-3.20;99.90;;;;;;5051998;28;20209;-76
2024/01/13 09:26:03;;;;;;;10.02;4.32;;;-3.10;99.90;;;;;;5051838;28;20240;-76
2024/01/13 09:28:30;;;;;;;7.07;5.43;;;-3.10;99.90;;;;;;5052305;28;20201;-75
2024/01/13 09:30:58;;;;;;;4.50;3.67;;;-3.10;99.90;;;;;;5050493;28;20205;-75
2024/01/13 09:33:25;;;;;;;8.60;3.90;;;-3.00;99.90;;;;;;5052112;28;20745;-75
2024/01/13 09:35:52;;;;;;;8.88;4.53;;;-3.00;99.90;;;;;;5051610;28;20288;-75
2024/01/13 09:38:18;;;;;;;4.07;3.33;;;-2.90;99.90;;;;;;5052202;28;20208;-76
2024/01/13 09:40:46;;;;;;;10.98;3.70;;;-2.80;99.90;;;;;;5051500;28;20673;-75
2024/01/13 09:43:21;;;;;;;5.35;4.85;;;-2.80;99.90;;;;;;5051192;28;20220;-76
2024/01/13 09:45:50;;;;;;;3.83;3.22;;;-2.80;99.90;;;;;;5052071;28;20228;-76
2024/01/13 09:48:21;;;;;;;4.82;3.08;;;-2.70;99.90;;;;;;5052469;28;20266;-75
2024/01/13 09:50:52;;;;;;;5.88;2.97;;;-2.70;99.90;;;;;;5052172;28;20209;-76
2024/01/13 09:53:28;;;;;;;4.88;3.88;;;-2.70;99.90;;;;;;5051656;28;20632;-76
2024/01/13 09:55:58;;;;;;;4.13;3.67;;;-2.60;99.90;;;;;;5051535;28;20251;-76
2024/01/13 09:58:26;;;;;;;10.05;6.82;;;-2.60;99.90;;;;;;5051681;28;20201;-76
2024/01/13 10:00:54;;;;;;;3.85;1.95;;;-2.60;99.90;;;;;;5044872;28;20201;-76
2024/01/13 10:03:23;;;;;;;7.57;3.30;;;-2.50;99.90;;;;;;5044216;28;20223;-76
2024/01/13 10:05:51;;;;;;;6.80;3.63;;;-2.50;99.90;;;;;;5044249;28;20223;-76
2024/01/13 10:08:24;;;;;;;4.28;3.30;;;-2.50;99.90;;;;;;5042306;28;20293;-76
2024/01/13 10:10:51;;;;;;;6.15;3.13;;;-2.50;99.90;;;;;;5044831;28;20259;-76
2024/01/13 10:13:19;;;;;;;5.53;3.45;;;-2.50;99.90;;;;;;5041814;28;20236;-76
2024/01/13 10:15:46;;;;;;;4.60;3.05;;;-2.50;99.90;;;;;;5044192;28;20210;-76
2024/01/13 10:18:13;;;;;;;3.22;2.90;;;-2.50;99.90;;;;;;5045246;28;20205;-76
2024/01/13 10:20:41;;;;;;;2.40;1.95;;;-2.40;99.90;;;;;;5043123;28;20217;-76
2024/01/13 10:23:09;;;;;;;4.82;2.42;;;-2.40;99.90;;;;;;5045019;28;20216;-76
2024/01/13 10:25:36;;;;;;;3.85;2.90;;;-2.40;99.90;;;;;;5042448;28;20883;-76
2024/01/13 10:28:03;;;;;;;6.53;3.60;;;-2.40;99.90;;;;;;5045286;28;20209;-76
2024/01/13 10:30:30;;;;;;;7.40;3.53;;;-2.50;99.90;;;;;;5042997;28;20216;-76
2024/01/13 10:32:59;;;;;;;9.68;3.95;;;-2.60;99.90;;;;;;5042685;28;20224;-76
2024/01/13 10:35:27;;;;;;;4.45;3.33;;;-2.70;99.90;;;;;;5046083;28;20197;-76
2024/01/13 10:37:56;;;;;;;5.05;3.28;;;-2.70;99.90;;;;;;5044358;28;20228;-76
2024/01/13 10:40:23;;;;;;;8.85;3.38;;;-2.60;99.90;;;;;;5048742;28;20577;-76
2024/01/13 10:42:54;;;;;;;6.82;3.00;;;-2.50;99.90;;;;;;5054418;28;20240;-76
2024/01/13 10:45:23;;;;;;;9.75;3.80;;;-2.40;99.90;;;;;;5048330;28;20228;-76
2024/01/13 10:47:52;;;;;;;7.30;3.13;;;-2.40;99.90;;;;;;5048181;28;20220;-76
2024/01/13 10:50:19;;;;;;;8.35;3.60;;;-2.30;99.90;;;;;;5048320;28;20259;-76
2024/01/13 10:52:58;;;;;;;3.55;3.25;;;-2.30;99.90;;;;;;5047718;28;20233;-75
2024/01/13 10:55:25;;;;;;;3.78;2.92;;;-2.30;99.90;;;;;;5043679;28;20288;-76
2024/01/13 10:57:52;;;;;;;7.25;3.95;;;-2.30;99.90;;;;;;5053742;28;20700;-75
2024/01/13 11:00:20;;;;;;;5.38;2.92;;;-2.30;99.90;;;;;;5047860;28;20200;-76
2024/01/13 11:02:48;;;;;;;4.53;3.22;;;-2.20;99.90;;;;;;5047362;28;20229;-76
2024/01/13 11:05:16;;;;;;;7.43;3.28;;;-2.20;99.90;;;;;;5042119;28;20712;-74
2024/01/13 11:07:43;;;;;;;5.97;3.88;;;-2.20;99.90;;;;;;5047831;28;20585;-73
2024/01/13 11:10:16;;;;;;;3.42;3.00;;;-2.20;99.90;;;;;;5047603;28;20209;-74
2024/01/13 11:12:48;;;;;;;4.65;2.88;;;-2.20;99.90;;;;;;5047768;28;20404;-74
2024/01/13 11:15:17;;;;;;;3.30;3.00;;;-2.10;99.90;;;;;;5042233;28;20224;-74
2024/01/13 11:17:47;;;;;;;4.45;3.30;;;-2.10;99.90;;;;;;5048052;28;20212;-73
2024/01/13 11:20:17;;;;;;;4.07;3.78;;;-2.10;99.90;;;;;;5047745;28;20224;-74
2024/01/13 11:22:55;;;;;;;8.52;4.82;;;-2.10;99.90;;;;;;5047210;28;20614;-74
2024/01/13 11:25:25;;;;;;;6.38;2.97;;;-2.10;99.90;;;;;;5042972;28;20247;-74
2024/01/13 11:27:57;;;;;;;3.97;2.65;;;-2.00;99.90;;;;;;5047168;28;20217;-74
2024/01/13 11:30:40;;;;;;;4.10;2.72;;;-2.00;99.90;;;;;;5047543;28;20201;-74
2024/01/13 11:33:10;;;;;;;7.63;4.55;;;-2.00;99.90;;;;;;5045829;28;20709;-75
2024/01/13 11:35:38;;;;;;;5.22;2.38;;;-2.00;99.90;;;;;;5047632;28;20209;-75
2024/01/13 11:38:07;;;;;;;19.63;4.80;;;-1.90;99.90;;;;;;5047452;28;20216;-75
2024/01/13 11:40:36;;;;;;;7.82;3.40;;;-1.80;99.90;;;;;;5047825;28;20205;-77
2024/01/13 11:43:08;;;;;;;7.90;3.88;;;-1.90;99.90;;;;;;5046834;28;20237;-74
2024/01/13 11:45:36;;;;;;;4.50;3.60;;;-2.10;99.90;;;;;;5048715;28;20221;-77
2024/01/13 11:48:37;;;;;;;6.95;3.50;;;-2.20;99.90;;;;;;5048595;28;20574;-77
2024/01/13 11:51:08;;;;;;;4.35;2.28;;;-2.20;99.90;;;;;;5047887;28;20216;-74
2024/01/13 11:53:36;;;;;;;7.35;3.25;;;-2.30;99.90;;;;;;5049950;28;20209;-74
2024/01/13 11:56:05;;;;;;;4.55;3.10;;;-2.40;99.90;;;;;;5049874;28;20229;-74
2024/01/13 11:58:32;;;;;;;6.35;2.67;;;-2.50;99.90;;;;;;5049977;28;20248;-74
2024/01/13 12:00:59;;;;;;;5.25;3.20;;;-2.50;99.90;;;;;;5049818;28;20209;-74
2024/01/13 12:03:25;;;;;;;7.20;2.42;;;-2.50;99.90;;;;;;5050141;28;20205;-75
2024/01/13 12:05:52;;;;;;;4.18;3.15;;;-2.40;99.90;;;;;;5052416;28;20720;-74
2024/01/13 12:08:19;;;;;;;3.28;2.65;;;-2.30;99.90;;;;;;5053619;28;20694;-74
2024/01/13 12:10:49;;;;;;;2.80;2.53;;;-2.20;99.90;;;;;;5053451;28;20631;-75
2024/01/13 12:13:17;;;;;;;4.45;3.97;;;-2.30;99.90;;;;;;5054429;28;20585;-75
2024/01/13 12:15:46;;;;;;;4.80;3.13;;;-2.20;99.90;;;;;;5054589;28;20208;-75
2024/01/13 12:18:18;;;;;;;5.50;3.60;;;-2.20;99.90;;;;;;5053501;28;20295;-75
2024/01/13 12:20:46;;;;;;;5.15;3.35;;;-2.10;99.90;;;;;;5053054;28;20209;-75
2024/01/13 12:23:13;;;;;;;5.10;3.63;;;-2.10;99.90;;;;;;5052672;28;20233;-75
2024/01/13 12:25:39;;;;;;;5.95;3.38;;;-2.00;99.90;;;;;;5053110;28;20220;-75
2024/01/13 12:28:07;;;;;;;7.45;4.18;;;-2.10;99.90;;;;;;5052981;28;20213;-75
2024/01/13 12:30:36;;;;;;;2.70;2.50;;;-2.10;99.90;;;;;;5054251;28;20205;-76
2024/01/13 12:33:05;;;;;;;3.20;2.55;;;-2.20;99.90;;;;;;5052501;28;20248;-75
2024/01/13 12:35:32;;;;;;;4.75;3.25;;;-2.20;99.90;;;;;;5053263;28;20262;-75
2024/01/13 12:38:00;;;;;;;4.00;3.08;;;-2.20;99.90;;;;;;5052680;28;20220;-75
2024/01/13 12:40:28;;;;;;;5.53;4.00;;;-2.20;99.90;;;;;;5053003;28;20209;-76
2024/01/13 12:42:55;;;;;;;6.22;3.70;;;-2.20;99.90;;;;;;5052332;28;20232;-76
2024/01/13 12:45:25;;;;;;;5.85;2.88;;;-2.20;99.90;;;;;;5052982;28;20208;-76